createdAt,value
2019-03-02T00:02:14.787Z,6.70
2019-03-02T00:04:46.208Z,6.70
2019-03-02T00:07:15.964Z,6.70
2019-03-02T00:09:45.782Z,6.60
2019-03-02T00:12:15.533Z,6.60
2019-03-02T00:14:45.293Z,6.60
2019-03-02T00:17:15.510Z,6.60
2019-03-02T00:19:46.536Z,6.60
2019-03-02T00:22:16.281Z,6.60
2019-03-02T00:24:46.110Z,6.70
2019-03-02T00:27:17.768Z,6.70
2019-03-02T00:29:47.292Z,6.70
2019-03-02T00:32:17.148Z,6.70
2019-03-02T00:34:46.916Z,6.70
2019-03-02T00:37:16.661Z,6.70
2019-03-02T00:39:46.395Z,6.70
2019-03-02T00:42:17.077Z,6.70
2019-03-02T00:44:47.982Z,6.70
2019-03-02T00:47:17.742Z,6.60
2019-03-02T00:49:47.484Z,6.60
2019-03-02T00:52:20.433Z,6.70
2019-03-02T00:54:57.789Z,6.70
2019-03-02T00:57:20.203Z,6.70
2019-03-02T00:59:49.949Z,6.70
2019-03-02T01:02:20.852Z,6.70
2019-03-02T01:04:50.662Z,6.70
2019-03-02T01:07:20.763Z,6.70
2019-03-02T01:09:52.049Z,6.60
2019-03-02T01:12:21.893Z,6.60
2019-03-02T01:14:51.653Z,6.60
2019-03-02T01:17:21.395Z,6.60
2019-03-02T01:19:52.699Z,6.60
2019-03-02T01:22:22.924Z,6.60
2019-03-02T01:24:52.656Z,6.60
2019-03-02T01:27:22.482Z,6.60
2019-03-02T01:29:54.682Z,6.60
2019-03-02T01:32:23.752Z,6.60
2019-03-02T01:34:53.496Z,6.50
2019-03-02T01:37:23.368Z,6.50
2019-03-02T01:39:53.156Z,6.60
2019-03-02T01:42:25.883Z,6.50
2019-03-02T01:44:54.480Z,6.50
2019-03-02T01:47:24.308Z,6.50
2019-03-02T01:49:54.310Z,6.60
2019-03-02T01:52:24.080Z,6.60
2019-03-02T01:54:55.769Z,6.50
2019-03-02T01:57:25.288Z,6.50
2019-03-02T01:59:55.017Z,6.50
2019-03-02T02:02:24.757Z,6.50
2019-03-02T02:04:57.541Z,6.40
2019-03-02T02:07:27.228Z,6.40
2019-03-02T02:09:57.111Z,6.40
2019-03-02T02:12:28.770Z,6.40
2019-03-02T02:14:58.549Z,6.40
2019-03-02T02:17:28.394Z,6.30
2019-03-02T02:19:58.233Z,6.30
2019-03-02T02:22:28.116Z,6.30
2019-03-02T02:25:00.499Z,6.30
2019-03-02T02:27:29.725Z,6.40
2019-03-02T02:29:59.490Z,6.40
2019-03-02T02:32:29.299Z,6.40
2019-03-02T02:35:00.939Z,6.40
2019-03-02T02:37:32.146Z,6.30
2019-03-02T02:40:02.277Z,6.30
2019-03-02T02:42:32.364Z,6.30
2019-03-02T02:45:02.521Z,6.30
2019-03-02T02:47:33.524Z,6.30
2019-03-02T02:50:05.000Z,6.30
2019-03-02T02:52:34.884Z,6.40
2019-03-02T02:55:05.363Z,6.40
2019-03-02T02:57:38.292Z,6.30
2019-03-02T03:00:16.422Z,6.30
2019-03-02T03:02:47.629Z,6.30
2019-03-02T03:05:17.750Z,6.30
2019-03-02T03:07:53.222Z,6.30
2019-03-02T03:10:28.016Z,6.30
2019-03-02T03:13:01.991Z,6.30
2019-03-02T03:15:37.061Z,6.30
2019-03-02T03:18:12.499Z,6.30
2019-03-02T03:20:47.618Z,6.30
2019-03-02T03:23:11.738Z,6.20
2019-03-02T03:25:41.798Z,6.20
2019-03-02T03:28:11.855Z,6.20
2019-03-02T03:30:42.419Z,6.20
2019-03-02T03:33:12.218Z,6.20
2019-03-02T03:35:42.359Z,6.30
2019-03-02T03:38:12.093Z,6.20
2019-03-02T03:40:42.056Z,6.30
2019-03-02T03:43:11.878Z,6.30
2019-03-02T03:45:43.311Z,6.30
2019-03-02T03:48:17.903Z,6.20
2019-03-02T03:50:47.956Z,6.30
2019-03-02T03:53:21.628Z,6.20
2019-03-02T03:55:49.334Z,6.20
2019-03-02T03:58:19.539Z,6.20
2019-03-02T04:00:49.494Z,6.20
2019-03-02T04:03:19.479Z,6.20
2019-03-02T04:05:49.556Z,6.20
2019-03-02T04:08:24.488Z,6.30
2019-03-02T04:10:51.114Z,6.20
2019-03-02T04:13:21.121Z,6.20
2019-03-02T04:15:51.134Z,6.20
2019-03-02T04:18:58.259Z,6.10
2019-03-02T04:21:40.033Z,6.10
2019-03-02T04:24:10.021Z,6.20
2019-03-02T04:26:39.914Z,6.20
2019-03-02T04:29:11.405Z,6.20
2019-03-02T04:31:43.966Z,6.20
2019-03-02T04:34:20.271Z,6.20
2019-03-02T04:36:47.322Z,6.20
2019-03-02T04:39:15.605Z,6.20
2019-03-02T04:41:45.649Z,6.20
2019-03-02T04:44:15.530Z,6.20
2019-03-02T04:46:47.771Z,6.20
2019-03-02T04:49:16.991Z,6.20
2019-03-02T04:51:46.822Z,6.20
2019-03-02T04:54:16.591Z,6.20
2019-03-02T04:56:46.342Z,6.20
2019-03-02T04:59:18.737Z,6.10
2019-03-02T05:01:47.743Z,6.20
2019-03-02T05:04:17.489Z,6.20
2019-03-02T05:06:50.539Z,6.20
2019-03-02T05:09:18.765Z,6.10
2019-03-02T05:11:48.526Z,6.10
2019-03-02T05:14:18.354Z,6.10
2019-03-02T05:16:48.464Z,6.20
2019-03-02T05:19:18.311Z,6.10
2019-03-02T05:21:49.106Z,6.10
2019-03-02T05:24:18.850Z,6.10
2019-03-02T05:26:48.673Z,6.10
2019-03-02T05:29:18.545Z,6.10
2019-03-02T05:31:48.355Z,6.00
2019-03-02T05:34:18.120Z,6.10
2019-03-02T05:36:48.189Z,6.10
2019-03-02T05:39:18.074Z,6.10
2019-03-02T05:41:48.421Z,6.10
2019-03-02T05:44:18.238Z,6.10
2019-03-02T05:46:48.022Z,6.10
2019-03-02T05:49:18.567Z,6.10
2019-03-02T05:51:48.749Z,6.00
2019-03-02T05:54:18.776Z,6.10
2019-03-02T05:56:48.726Z,6.00
2019-03-02T05:59:18.674Z,6.10
2019-03-02T06:01:48.503Z,6.00
2019-03-02T06:04:18.839Z,6.00
2019-03-02T06:06:50.839Z,6.00
2019-03-02T06:09:22.118Z,6.00
2019-03-02T06:11:52.046Z,6.00
2019-03-02T06:14:22.056Z,6.00
2019-03-02T06:16:53.804Z,6.00
2019-03-02T06:19:24.244Z,6.00
2019-03-02T06:21:54.198Z,6.10
2019-03-02T06:24:24.218Z,6.00
2019-03-02T06:26:54.011Z,6.00
2019-03-02T06:29:23.840Z,6.00
2019-03-02T06:31:54.039Z,6.00
2019-03-02T06:34:24.633Z,6.00
2019-03-02T06:36:54.384Z,6.00
2019-03-02T06:39:24.219Z,6.10
2019-03-02T06:41:54.251Z,6.00
2019-03-02T06:44:24.062Z,6.00
2019-03-02T06:46:54.752Z,6.00
2019-03-02T06:49:25.606Z,6.10
2019-03-02T06:51:55.530Z,6.10
2019-03-02T06:54:25.339Z,6.10
2019-03-02T06:56:58.019Z,6.10
2019-03-02T06:59:26.614Z,6.10
2019-03-02T07:01:56.570Z,6.10
2019-03-02T07:04:27.887Z,6.10
2019-03-02T07:06:57.654Z,6.10
2019-03-02T07:09:27.390Z,6.20
2019-03-02T07:11:57.183Z,6.20
2019-03-02T07:14:28.825Z,6.20
2019-03-02T07:16:58.847Z,6.20
2019-03-02T07:19:44.519Z,6.10
2019-03-02T07:22:16.876Z,6.20
2019-03-02T07:24:46.463Z,6.20
2019-03-02T07:27:16.295Z,6.20
2019-03-02T07:29:46.066Z,6.20
2019-03-02T07:32:15.918Z,6.20
2019-03-02T07:34:45.678Z,6.20
2019-03-02T07:37:21.825Z,6.20
2019-03-02T07:39:51.947Z,6.20
2019-03-02T07:42:21.697Z,6.20
2019-03-02T07:44:54.903Z,6.20
2019-03-02T07:47:24.113Z,6.30
2019-03-02T07:49:54.465Z,6.20
2019-03-02T07:52:24.299Z,6.20
2019-03-02T07:54:58.308Z,6.20
2019-03-02T07:57:26.078Z,6.20
2019-03-02T07:59:57.149Z,6.30
2019-03-02T08:02:29.547Z,6.20
2019-03-02T08:05:00.187Z,6.20
2019-03-02T08:07:30.232Z,6.20
2019-03-02T08:10:02.012Z,6.20
2019-03-02T08:12:31.559Z,6.30
2019-03-02T08:15:02.584Z,6.30
2019-03-02T08:17:32.925Z,6.20
2019-03-02T08:20:03.343Z,6.20
2019-03-02T08:22:35.450Z,6.20
2019-03-02T08:25:09.335Z,6.20
2019-03-02T08:27:42.870Z,6.20
2019-03-02T08:30:15.438Z,6.30
2019-03-02T08:32:48.490Z,6.20
2019-03-02T08:35:22.194Z,6.20
2019-03-02T08:37:52.965Z,6.20
2019-03-02T08:40:24.362Z,6.10
2019-03-02T08:42:58.259Z,6.10
2019-03-02T08:45:30.949Z,6.10
2019-03-02T08:48:07.037Z,6.10
2019-03-02T08:50:38.022Z,6.10
2019-03-02T08:53:08.365Z,6.20
2019-03-02T08:55:38.158Z,6.20
2019-03-02T08:58:08.055Z,6.20
2019-03-02T09:00:38.997Z,6.30
2019-03-02T09:03:09.611Z,6.30
2019-03-02T09:05:44.408Z,6.30
2019-03-02T09:08:11.337Z,6.40
2019-03-02T09:10:41.320Z,6.40
2019-03-02T09:13:11.078Z,6.50
2019-03-02T09:15:43.163Z,6.50
2019-03-02T09:18:17.973Z,6.60
2019-03-02T09:20:47.821Z,6.70
2019-03-02T09:23:17.714Z,6.80
2019-03-02T09:25:49.605Z,6.80
2019-03-02T09:28:23.338Z,6.70
2019-03-02T09:30:54.108Z,6.70
2019-03-02T09:33:28.649Z,6.70
2019-03-02T09:36:03.421Z,6.70
2019-03-02T09:38:42.985Z,6.70
2019-03-02T09:41:22.031Z,6.70
2019-03-02T09:44:00.805Z,6.70
2019-03-02T09:46:29.115Z,6.80
2019-03-02T09:49:00.701Z,6.80
2019-03-02T09:51:56.992Z,6.90
2019-03-02T09:54:34.429Z,7.00
2019-03-02T09:57:09.225Z,7.00
2019-03-02T09:59:48.373Z,7.00
2019-03-02T10:02:20.315Z,7.00
2019-03-02T10:04:52.905Z,7.00
2019-03-02T10:07:28.235Z,7.00
2019-03-02T10:10:04.951Z,7.10
2019-03-02T10:12:38.453Z,7.20
2019-03-02T10:15:22.166Z,7.30
2019-03-02T10:17:52.678Z,7.30
2019-03-02T10:20:22.793Z,7.40
2019-03-02T10:22:56.534Z,7.30
2019-03-02T10:25:33.055Z,7.30
2019-03-02T10:28:04.953Z,7.30
2019-03-02T10:30:36.572Z,7.20
2019-03-02T10:33:08.366Z,7.20
2019-03-02T10:35:40.574Z,7.10
2019-03-02T10:38:10.768Z,7.00
2019-03-02T10:40:48.514Z,7.10
2019-03-02T10:43:19.570Z,7.20
2019-03-02T10:46:08.261Z,7.20
2019-03-02T10:48:40.715Z,7.20
2019-03-02T10:51:11.120Z,7.20
2019-03-02T10:53:40.869Z,7.20
2019-03-02T10:56:12.830Z,7.30
2019-03-02T10:58:43.380Z,7.30
2019-03-02T11:01:13.690Z,7.20
2019-03-02T11:03:44.797Z,7.30
2019-03-02T11:06:21.698Z,7.40
2019-03-02T11:09:13.233Z,7.40
2019-03-02T11:12:06.756Z,7.50
2019-03-02T11:15:07.604Z,7.60
2019-03-02T11:18:02.550Z,7.60
2019-03-02T11:20:55.726Z,7.40
2019-03-02T11:23:44.411Z,7.60
2019-03-02T11:26:34.128Z,7.60
2019-03-02T11:29:21.130Z,7.50
2019-03-02T11:32:09.826Z,7.60
2019-03-02T11:34:59.151Z,7.90
2019-03-02T11:37:45.682Z,8.00
2019-03-02T11:40:33.084Z,8.30
2019-03-02T11:43:16.300Z,8.70
2019-03-02T11:46:12.036Z,8.90
2019-03-02T11:48:57.053Z,9.00
2019-03-02T11:51:44.906Z,9.00
2019-03-02T11:54:31.004Z,8.90
2019-03-02T11:57:17.770Z,9.10
2019-03-02T12:00:14.361Z,9.10
2019-03-02T12:03:03.865Z,9.10
2019-03-02T12:05:56.429Z,8.90
2019-03-02T12:08:44.437Z,8.70
2019-03-02T12:11:36.631Z,8.70
2019-03-02T12:14:16.797Z,8.60
2019-03-02T12:17:08.570Z,8.80
2019-03-02T12:20:09.850Z,8.70
2019-03-02T12:23:14.009Z,8.60
2019-03-02T12:26:07.847Z,8.80
2019-03-02T12:28:51.031Z,8.90
2019-03-02T12:31:46.957Z,8.80
2019-03-02T12:34:41.698Z,8.90
2019-03-02T12:37:32.961Z,9.10
2019-03-02T12:40:20.948Z,9.50
2019-03-02T12:43:13.339Z,9.70
2019-03-02T12:45:57.536Z,9.90
2019-03-02T12:48:55.652Z,10.00
2019-03-02T12:51:35.336Z,9.90
2019-03-02T12:54:28.008Z,9.60
2019-03-02T12:57:23.268Z,9.50
2019-03-02T13:00:35.062Z,9.50
2019-03-02T13:03:31.021Z,9.70
2019-03-02T13:06:32.225Z,9.70
2019-03-02T13:09:29.068Z,9.60
2019-03-02T13:12:24.714Z,9.50
2019-03-02T13:15:12.486Z,9.50
2019-03-02T13:17:58.839Z,9.40
2019-03-02T13:20:44.517Z,9.50
2019-03-02T13:23:42.554Z,9.60
2019-03-02T13:26:17.208Z,10.10
2019-03-02T13:28:58.372Z,11.10
2019-03-02T13:31:56.210Z,12.00
2019-03-02T13:34:48.315Z,12.20
2019-03-02T13:37:46.174Z,11.70
2019-03-02T13:40:33.944Z,11.40
2019-03-02T13:43:24.573Z,11.10
2019-03-02T13:46:11.433Z,11.00
2019-03-02T13:49:18.285Z,11.10
2019-03-02T13:52:13.878Z,11.40
2019-03-02T13:55:00.368Z,11.40
2019-03-02T13:57:43.158Z,10.90
2019-03-02T14:00:40.676Z,10.40
2019-03-02T14:03:18.448Z,10.30
2019-03-02T14:06:22.404Z,10.10
2019-03-02T14:09:08.860Z,10.10
2019-03-02T14:11:55.687Z,10.00
2019-03-02T14:14:46.027Z,9.90
2019-03-02T14:17:24.784Z,10.00
2019-03-02T14:20:13.965Z,10.10
2019-03-02T14:23:12.315Z,9.90
2019-03-02T14:25:46.928Z,9.80
2019-03-02T14:28:38.886Z,9.90
2019-03-02T14:31:19.891Z,10.00
2019-03-02T14:33:52.593Z,10.10
2019-03-02T14:36:40.415Z,10.00
2019-03-02T14:39:45.355Z,10.10
2019-03-02T14:42:34.217Z,10.10
2019-03-02T14:45:22.364Z,9.90
2019-03-02T14:48:13.580Z,9.70
2019-03-02T14:51:03.899Z,9.60
2019-03-02T14:54:10.948Z,9.50
2019-03-02T14:56:50.409Z,9.50
2019-03-02T14:59:46.828Z,9.50
2019-03-02T15:02:31.771Z,9.40
2019-03-02T15:05:20.599Z,9.30
2019-03-02T15:08:31.499Z,9.40
2019-03-02T15:11:22.966Z,9.40
2019-03-02T15:14:07.289Z,9.30
2019-03-02T15:16:59.431Z,9.30
2019-03-02T15:19:57.213Z,9.30
2019-03-02T15:22:37.961Z,9.30
2019-03-02T15:25:36.167Z,9.30
2019-03-02T15:28:29.027Z,9.30
2019-03-02T15:31:06.649Z,9.30
2019-03-02T15:33:49.642Z,9.20
2019-03-02T15:36:38.812Z,9.10
2019-03-02T15:39:27.295Z,9.10
2019-03-02T15:42:22.293Z,8.90
2019-03-02T15:45:14.295Z,8.70
2019-03-02T15:48:02.210Z,8.70
2019-03-02T15:50:45.974Z,8.60
2019-03-02T15:53:30.741Z,8.60
2019-03-02T15:56:28.224Z,8.60
2019-03-02T15:59:07.069Z,8.50
2019-03-02T16:01:44.131Z,8.50
2019-03-02T16:04:35.341Z,8.40
2019-03-02T16:07:34.968Z,8.40
2019-03-02T16:10:29.039Z,8.40
2019-03-02T16:13:24.255Z,8.40
2019-03-02T16:16:11.038Z,8.30
2019-03-02T16:19:12.082Z,8.30
2019-03-02T16:21:57.212Z,8.30
2019-03-02T16:24:56.986Z,8.20
2019-03-02T16:27:48.083Z,8.20
2019-03-02T16:30:34.135Z,8.10
2019-03-02T16:33:35.292Z,8.20
2019-03-02T16:36:30.579Z,8.20
2019-03-02T16:39:34.566Z,8.10
2019-03-02T16:42:14.920Z,8.10
2019-03-02T16:45:15.754Z,8.10
2019-03-02T16:48:10.613Z,8.00
2019-03-02T16:50:54.576Z,8.00
2019-03-02T16:54:02.483Z,7.90
2019-03-02T16:56:45.775Z,7.80
2019-03-02T16:59:32.215Z,7.80
2019-03-02T17:02:23.749Z,7.80
2019-03-02T17:05:09.541Z,7.70
2019-03-02T17:08:01.418Z,7.70
2019-03-02T17:10:56.089Z,7.60
2019-03-02T17:13:44.805Z,7.60
2019-03-02T17:16:45.651Z,7.50
2019-03-02T17:19:38.164Z,7.60
2019-03-02T17:22:18.568Z,7.60
2019-03-02T17:25:06.079Z,7.50
2019-03-02T17:27:43.183Z,7.50
2019-03-02T17:30:31.686Z,7.50
2019-03-02T17:33:09.851Z,7.50
2019-03-02T17:36:02.152Z,7.50
2019-03-02T17:39:01.905Z,7.40
2019-03-02T17:42:01.281Z,7.40
2019-03-02T17:44:37.863Z,7.30
2019-03-02T17:47:18.961Z,7.20
2019-03-02T17:50:03.009Z,7.20
2019-03-02T17:52:43.140Z,7.10
2019-03-02T17:55:31.147Z,7.10
2019-03-02T17:58:35.337Z,7.20
2019-03-02T18:01:22.953Z,7.20
2019-03-02T18:04:00.550Z,7.10
2019-03-02T18:06:37.914Z,7.00
2019-03-02T18:09:29.727Z,6.90
2019-03-02T18:12:18.706Z,6.80
2019-03-02T18:15:07.955Z,6.80
2019-03-02T18:17:59.754Z,6.80
2019-03-02T18:20:30.530Z,6.70
2019-03-02T18:23:00.442Z,6.70
2019-03-02T18:25:30.269Z,6.70
2019-03-02T18:28:00.325Z,6.60
2019-03-02T18:30:30.528Z,6.50
2019-03-02T18:33:11.139Z,6.50
2019-03-02T18:35:41.695Z,6.50
2019-03-02T18:38:13.467Z,6.60
2019-03-02T18:40:43.079Z,6.60
2019-03-02T18:43:14.170Z,6.60
2019-03-02T18:45:45.870Z,6.40
2019-03-02T18:48:34.120Z,6.30
2019-03-02T18:51:15.792Z,6.30
2019-03-02T18:53:45.694Z,6.20
2019-03-02T18:56:15.534Z,6.10
2019-03-02T18:58:45.623Z,6.10
2019-03-02T19:01:15.458Z,6.10
2019-03-02T19:03:45.323Z,6.10
2019-03-02T19:06:15.462Z,6.00
2019-03-02T19:08:47.339Z,6.10
2019-03-02T19:11:18.981Z,6.10
2019-03-02T19:13:48.190Z,6.20
2019-03-02T19:16:18.601Z,6.20
2019-03-02T19:18:48.709Z,6.30
2019-03-02T19:21:18.919Z,6.40
2019-03-02T19:23:48.790Z,6.50
2019-03-02T19:26:18.699Z,6.60
2019-03-02T19:28:48.540Z,6.60
2019-03-02T19:31:18.543Z,6.60
2019-03-02T19:33:48.319Z,6.60
2019-03-02T19:36:18.076Z,6.60
2019-03-02T19:38:47.858Z,6.60
2019-03-02T19:41:17.753Z,6.60
2019-03-02T19:43:48.654Z,6.50
2019-03-02T19:46:18.550Z,6.50
2019-03-02T19:48:48.318Z,6.60
2019-03-02T19:51:18.245Z,6.60
2019-03-02T19:53:48.086Z,6.60
2019-03-02T19:56:17.922Z,6.60
2019-03-02T19:58:47.787Z,6.60
2019-03-02T20:01:17.615Z,6.60
2019-03-02T20:03:48.141Z,6.60
2019-03-02T20:06:18.788Z,6.60
2019-03-02T20:08:48.632Z,6.60
2019-03-02T20:11:18.437Z,6.50
2019-03-02T20:13:48.643Z,6.40
2019-03-02T20:16:18.620Z,6.40
2019-03-02T20:18:48.760Z,6.30
2019-03-02T20:21:18.939Z,6.20
2019-03-02T20:23:48.733Z,6.10
2019-03-02T20:26:19.266Z,6.00
2019-03-02T20:28:49.043Z,5.90
2019-03-02T20:31:19.642Z,5.80
2019-03-02T20:33:49.440Z,5.70
2019-03-02T20:36:19.254Z,5.60
2019-03-02T20:38:49.343Z,5.60
2019-03-02T20:41:19.401Z,5.50
2019-03-02T20:43:50.316Z,5.50
2019-03-02T20:46:20.432Z,5.50
2019-03-02T20:48:50.285Z,5.40
2019-03-02T20:51:20.719Z,5.40
2019-03-02T20:53:50.662Z,5.30
2019-03-02T20:56:20.613Z,5.10
2019-03-02T20:58:50.535Z,5.00
2019-03-02T21:01:20.663Z,4.90
2019-03-02T21:03:51.067Z,4.90
2019-03-02T21:06:21.130Z,4.90
2019-03-02T21:08:51.267Z,4.80
2019-03-02T21:11:21.190Z,4.80
2019-03-02T21:13:51.194Z,4.80
2019-03-02T21:16:21.365Z,4.70
2019-03-02T21:18:51.393Z,4.70
2019-03-02T21:21:21.177Z,4.70
2019-03-02T21:23:51.271Z,4.70
2019-03-02T21:26:21.179Z,4.70
2019-03-02T21:28:50.986Z,4.70
2019-03-02T21:31:21.082Z,4.70
2019-03-02T21:33:50.886Z,4.80
2019-03-02T21:36:20.725Z,4.90
2019-03-02T21:38:50.609Z,4.90
2019-03-02T21:41:20.664Z,5.10
2019-03-02T21:43:50.510Z,5.20
2019-03-02T21:46:20.431Z,5.30
2019-03-02T21:48:50.201Z,5.40
2019-03-02T21:51:22.060Z,5.50
2019-03-02T21:53:52.854Z,5.70
2019-03-02T21:56:22.977Z,5.80
2019-03-02T21:58:52.780Z,5.80
2019-03-02T22:01:22.648Z,5.90
2019-03-02T22:03:52.446Z,5.90
2019-03-02T22:06:22.635Z,5.90
2019-03-02T22:08:52.479Z,5.90
2019-03-02T22:11:22.505Z,6.00
2019-03-02T22:13:52.633Z,6.00
2019-03-02T22:16:22.459Z,6.00
2019-03-02T22:18:52.211Z,6.00
2019-03-02T22:21:22.060Z,6.10
2019-03-02T22:23:51.835Z,6.10
2019-03-02T22:26:21.591Z,6.20
2019-03-02T22:28:51.403Z,6.30
2019-03-02T22:31:21.142Z,6.30
2019-03-02T22:33:50.895Z,6.40
2019-03-02T22:36:20.641Z,6.40
2019-03-02T22:38:50.492Z,6.40
2019-03-02T22:41:20.245Z,6.40
2019-03-02T22:43:49.991Z,6.50
2019-03-02T22:46:20.031Z,6.40
2019-03-02T22:48:49.847Z,6.40
2019-03-02T22:51:19.616Z,6.40
2019-03-02T22:53:49.705Z,6.30
2019-03-02T22:56:19.806Z,6.30
2019-03-02T22:58:48.826Z,6.40
2019-03-02T23:01:33.492Z,6.30
2019-03-02T23:04:03.590Z,6.30
2019-03-02T23:06:33.484Z,6.30
2019-03-02T23:09:05.325Z,6.30
2019-03-02T23:11:36.222Z,6.30
2019-03-02T23:14:06.191Z,6.50
2019-03-02T23:16:35.934Z,6.50
2019-03-02T23:19:05.843Z,6.60
2019-03-02T23:21:35.659Z,6.60
2019-03-02T23:24:05.549Z,6.60
2019-03-02T23:26:35.290Z,6.60
2019-03-02T23:29:05.177Z,6.60
2019-03-02T23:31:34.981Z,6.60
2019-03-02T23:34:04.814Z,6.60
2019-03-02T23:36:36.153Z,6.60
2019-03-02T23:39:07.374Z,6.60
2019-03-02T23:41:38.348Z,6.60
2019-03-02T23:44:08.753Z,6.50
2019-03-02T23:46:38.559Z,6.50
2019-03-02T23:49:08.634Z,6.50
2019-03-02T23:51:38.387Z,6.50
2019-03-02T23:54:08.379Z,6.50
2019-03-02T23:56:38.299Z,6.50
2019-03-02T23:59:08.033Z,6.60
